<?xml version="1.0" encoding="utf-8"?>
<gpx xmlns:xsi="http://www.w3.org/2001/XMLSchema-instance" xmlns:xsd="http://www.w3.org/2001/XMLSchema" version="1.1" creator="Shapelink.com" xmlns="http://www.topografix.com/GPX/1/1" xmlns:gpxtpx="http://www.garmin.com/xmlschemas/TrackPointExtension/v1">
  <metadata>
    <name>Gåing 0.45 km, 2012-07-17</name>
    <desc></desc>
    <author><name>Mikael Blom</name></author> 
    <time>2012-07-17T10:32:38Z</time>
  </metadata>
  <trk>
    <name>Gåing 0.45 km, 2012-07-17</name>
    <trkseg>
      <trkpt lat="59.9825752" lon="17.7382534">
        <ele>45.7999</ele>
        <time>2012-07-17T10:32:38Z</time>
      </trkpt>
      <trkpt lat="59.982482" lon="17.738213">
        <ele>47.7225</ele>
        <time>2012-07-17T10:32:43Z</time>
      </trkpt>
      <trkpt lat="59.9824047" lon="17.738224">
        <ele>48.2034</ele>
        <time>2012-07-17T10:32:47Z</time>
      </trkpt>
      <trkpt lat="59.982338" lon="17.7382212">
        <ele>48.684</ele>
        <time>2012-07-17T10:32:51Z</time>
      </trkpt>
      <trkpt lat="59.9822482" lon="17.7382401">
        <ele>49.1646</ele>
        <time>2012-07-17T10:32:56Z</time>
      </trkpt>
      <trkpt lat="59.9821436" lon="17.7382789">
        <ele>50.126</ele>
        <time>2012-07-17T10:33:03Z</time>
      </trkpt>
      <trkpt lat="59.9820444" lon="17.7383334">
        <ele>50.126</ele>
        <time>2012-07-17T10:33:09Z</time>
      </trkpt>
      <trkpt lat="59.9819618" lon="17.7383451">
        <ele>50.6066</ele>
        <time>2012-07-17T10:33:14Z</time>
      </trkpt>
      <trkpt lat="59.9819026" lon="17.738369">
        <ele>49.6453</ele>
        <time>2012-07-17T10:33:18Z</time>
      </trkpt>
      <trkpt lat="59.9818913" lon="17.7383644">
        <ele>49.1646</ele>
        <time>2012-07-17T10:33:19Z</time>
      </trkpt>
      <trkpt lat="59.981816" lon="17.7383977">
        <ele>47.7225</ele>
        <time>2012-07-17T10:33:24Z</time>
      </trkpt>
      <trkpt lat="59.9817251" lon="17.7384322">
        <ele>46.7612</ele>
        <time>2012-07-17T10:33:31Z</time>
      </trkpt>
      <trkpt lat="59.9817012" lon="17.7384372">
        <ele>46.7612</ele>
        <time>2012-07-17T10:33:33Z</time>
      </trkpt>
      <trkpt lat="59.9816426" lon="17.7384644">
        <ele>45.3192</ele>
        <time>2012-07-17T10:33:37Z</time>
      </trkpt>
      <trkpt lat="59.9815153" lon="17.7385149">
        <ele>44.358</ele>
        <time>2012-07-17T10:33:46Z</time>
      </trkpt>
      <trkpt lat="59.9814138" lon="17.7385504">
        <ele>43.8773</ele>
        <time>2012-07-17T10:33:52Z</time>
      </trkpt>
      <trkpt lat="59.9813063" lon="17.7385937">
        <ele>41.9547</ele>
        <time>2012-07-17T10:33:58Z</time>
      </trkpt>
      <trkpt lat="59.9812065" lon="17.7386022">
        <ele>42.916</ele>
        <time>2012-07-17T10:34:04Z</time>
      </trkpt>
      <trkpt lat="59.9811024" lon="17.7386566">
        <ele>40.9934</ele>
        <time>2012-07-17T10:34:10Z</time>
      </trkpt>
      <trkpt lat="59.9810103" lon="17.7386738">
        <ele>40.0321</ele>
        <time>2012-07-17T10:34:16Z</time>
      </trkpt>
      <trkpt lat="59.9808989" lon="17.7386861">
        <ele>41.9547</ele>
        <time>2012-07-17T10:34:23Z</time>
      </trkpt>
      <trkpt lat="59.980802" lon="17.7387037">
        <ele>40.9934</ele>
        <time>2012-07-17T10:34:29Z</time>
      </trkpt>
      <trkpt lat="59.9807414" lon="17.7387213">
        <ele>40.5128</ele>
        <time>2012-07-17T10:34:34Z</time>
      </trkpt>
      <trkpt lat="59.9806318" lon="17.738756">
        <ele>40.5128</ele>
        <time>2012-07-17T10:34:41Z</time>
      </trkpt>
      <trkpt lat="59.9805256" lon="17.7387959">
        <ele>41.474</ele>
        <time>2012-07-17T10:34:48Z</time>
      </trkpt>
      <trkpt lat="59.980434" lon="17.7388167">
        <ele>40.0321</ele>
        <time>2012-07-17T10:34:53Z</time>
      </trkpt>
      <trkpt lat="59.9803518" lon="17.7388332">
        <ele>40.0321</ele>
        <time>2012-07-17T10:34:58Z</time>
      </trkpt>
      <trkpt lat="59.9803254" lon="17.738826">
        <ele>41.474</ele>
        <time>2012-07-17T10:35:00Z</time>
      </trkpt>
      <trkpt lat="59.9802461" lon="17.7388258">
        <ele>41.9547</ele>
        <time>2012-07-17T10:35:05Z</time>
      </trkpt>
      <trkpt lat="59.9801476" lon="17.7387975">
        <ele>40.9934</ele>
        <time>2012-07-17T10:35:12Z</time>
      </trkpt>
      <trkpt lat="59.9801171" lon="17.7388006">
        <ele>40.9934</ele>
        <time>2012-07-17T10:35:14Z</time>
      </trkpt>
      <trkpt lat="59.980074" lon="17.7388037">
        <ele>40.0321</ele>
        <time>2012-07-17T10:35:17Z</time>
      </trkpt>
      <trkpt lat="59.9800021" lon="17.7387778">
        <ele>41.9547</ele>
        <time>2012-07-17T10:35:22Z</time>
      </trkpt>
      <trkpt lat="59.9798711" lon="17.7388338">
        <ele>41.9547</ele>
        <time>2012-07-17T10:35:29Z</time>
      </trkpt>
      <trkpt lat="59.9798183" lon="17.7388564">
        <ele>41.9547</ele>
        <time>2012-07-17T10:35:32Z</time>
      </trkpt>
      <trkpt lat="59.9797343" lon="17.7388938">
        <ele>41.474</ele>
        <time>2012-07-17T10:35:37Z</time>
      </trkpt>
      <trkpt lat="59.9796176" lon="17.7389352">
        <ele>39.5513</ele>
        <time>2012-07-17T10:35:45Z</time>
      </trkpt>
      <trkpt lat="59.9795191" lon="17.7389772">
        <ele>35.7061</ele>
        <time>2012-07-17T10:35:52Z</time>
      </trkpt>
      <trkpt lat="59.9794471" lon="17.7390045">
        <ele>33.3029</ele>
        <time>2012-07-17T10:35:57Z</time>
      </trkpt>
      <trkpt lat="59.9793544" lon="17.7390657">
        <ele>31.8607</ele>
        <time>2012-07-17T10:36:03Z</time>
      </trkpt>
      <trkpt lat="59.9792622" lon="17.7391102">
        <ele>32.3416</ele>
        <time>2012-07-17T10:36:09Z</time>
      </trkpt>
      <trkpt lat="59.9791475" lon="17.7391728">
        <ele>32.3416</ele>
        <time>2012-07-17T10:36:16Z</time>
      </trkpt>
      <trkpt lat="59.9790786" lon="17.7392231">
        <ele>31.8607</ele>
        <time>2012-07-17T10:36:20Z</time>
      </trkpt>
      <trkpt lat="59.9789574" lon="17.7393014">
        <ele>31.8607</ele>
        <time>2012-07-17T10:36:27Z</time>
      </trkpt>
      <trkpt lat="59.9789262" lon="17.7393143">
        <ele>32.8223</ele>
        <time>2012-07-17T10:36:29Z</time>
      </trkpt>
      <trkpt lat="59.9788929" lon="17.7393898">
        <ele>33.3029</ele>
        <time>2012-07-17T10:36:33Z</time>
      </trkpt>
      <trkpt lat="59.9788882" lon="17.739443">
        <ele>32.8223</ele>
        <time>2012-07-17T10:36:35Z</time>
      </trkpt>
      <trkpt lat="59.978853" lon="17.7396066">
        <ele>32.3416</ele>
        <time>2012-07-17T10:36:41Z</time>
      </trkpt>
      <trkpt lat="59.9788163" lon="17.7397049">
        <ele>31.8607</ele>
        <time>2012-07-17T10:36:46Z</time>
      </trkpt>
      <trkpt lat="59.978822" lon="17.7397833">
        <ele>33.7834</ele>
        <time>2012-07-17T10:36:49Z</time>
      </trkpt>
      <trkpt lat="59.9788526" lon="17.7399204">
        <ele>36.1868</ele>
        <time>2012-07-17T10:36:55Z</time>
      </trkpt>
    </trkseg>
  </trk>
</gpx>